CEB5054 RPLL-RJAA
Flight info
| Callsign | CEB5054 |
|---|---|
| Flight time | 4h 5m |
| Altitude | 39000 |
| Route | CAB2V CAB R597 VIGOR M501 LIMLE DCT KEITH A339 YOSHI Y85 MOE Y81 RUTAS |
| Aircraft | A339/H-SADE1E2E3GHIJ3J5M1P2RWXY/LB2D1 |
Departure
| Time | 2026-05-06 00:17 |
|---|---|
| Airport | Ninoy Aquino International Airport (RPLL) |
Arrival
| Time | 2026-05-06 04:23 |
|---|---|
| Airport | Narita International Airport (RJAA) |
| Time | Latitude | Longitude | Altitude | Speed | Heading |
|---|---|---|---|---|---|
| 2026-05-05 23:54 | 14.51707 | 121.01468 | 62 ft | 0 kts | 46° |
| 2026-05-06 00:09 | 14.51700 | 121.01461 | 62 ft | 0 kts | 46° |
| 2026-05-06 00:09 | 14.51692 | 121.01453 | 61 ft | 2 kts | 40° |
| 2026-05-06 00:10 | 14.51680 | 121.01444 | 61 ft | 2 kts | 27° |
| 2026-05-06 00:10 | 14.51666 | 121.01437 | 61 ft | 2 kts | 16° |
| 2026-05-06 00:10 | 14.51651 | 121.01434 | 61 ft | 2 kts | 5° |
| 2026-05-06 00:10 | 14.51636 | 121.01434 | 61 ft | 2 kts | 354° |
| 2026-05-06 00:11 | 14.51621 | 121.01437 | 61 ft | 2 kts | 343° |
| 2026-05-06 00:11 | 14.51607 | 121.01442 | 61 ft | 2 kts | 333° |
| 2026-05-06 00:11 | 14.51594 | 121.01450 | 61 ft | 2 kts | 322° |
| 2026-05-06 00:11 | 14.51586 | 121.01457 | 62 ft | 0 kts | 315° |
| 2026-05-06 00:12 | 14.51583 | 121.01459 | 62 ft | 0 kts | 314° |
| 2026-05-06 00:13 | 14.51584 | 121.01458 | 61 ft | 1 kts | 314° |
| 2026-05-06 00:13 | 14.51605 | 121.01437 | 61 ft | 6 kts | 314° |
| 2026-05-06 00:14 | 14.51650 | 121.01389 | 60 ft | 11 kts | 314° |
| 2026-05-06 00:14 | 14.51716 | 121.01320 | 59 ft | 15 kts | 315° |
| 2026-05-06 00:14 | 14.51803 | 121.01231 | 57 ft | 25 kts | 316° |
| 2026-05-06 00:14 | 14.51968 | 121.01058 | 52 ft | 35 kts | 314° |
| 2026-05-06 00:15 | 14.52144 | 121.00879 | 48 ft | 35 kts | 316° |
| 2026-05-06 00:15 | 14.52320 | 121.00700 | 44 ft | 34 kts | 315° |
| 2026-05-06 00:15 | 14.52478 | 121.00532 | 41 ft | 22 kts | 308° |
| 2026-05-06 00:15 | 14.52476 | 121.00470 | 41 ft | 7 kts | 220° |
| 2026-05-06 00:16 | 14.52439 | 121.00434 | 41 ft | 8 kts | 221° |
| 2026-05-06 00:16 | 14.52378 | 121.00416 | 40 ft | 9 kts | 167° |
| 2026-05-06 00:16 | 14.52270 | 121.00500 | 41 ft | 47 kts | 135° |
| 2026-05-06 00:16 | 14.51874 | 121.00910 | 51 ft | 111 kts | 134° |
| 2026-05-06 00:17 | 14.51161 | 121.01646 | 92 ft | 163 kts | 136° |
| 2026-05-06 00:17 | 14.50331 | 121.02492 | 628 ft | 167 kts | 134° |
| 2026-05-06 00:17 | 14.49517 | 121.03335 | 1300 ft | 166 kts | 134° |
| 2026-05-06 00:17 | 14.48698 | 121.04183 | 1910 ft | 168 kts | 133° |
| 2026-05-06 00:18 | 14.47826 | 121.05091 | 2261 ft | 182 kts | 133° |
| 2026-05-06 00:18 | 14.46881 | 121.06074 | 2571 ft | 200 kts | 132° |
| 2026-05-06 00:18 | 14.45849 | 121.07145 | 2963 ft | 215 kts | 132° |
| 2026-05-06 00:18 | 14.44729 | 121.08257 | 3351 ft | 231 kts | 142° |
| 2026-05-06 00:19 | 14.43174 | 121.08790 | 3932 ft | 244 kts | 181° |
| 2026-05-06 00:19 | 14.41584 | 121.08189 | 4615 ft | 250 kts | 219° |
| 2026-05-06 00:19 | 14.40401 | 121.06834 | 5303 ft | 253 kts | 232° |
| 2026-05-06 00:19 | 14.39376 | 121.05365 | 5929 ft | 257 kts | 233° |
| 2026-05-06 00:20 | 14.38312 | 121.03872 | 6555 ft | 259 kts | 231° |
| 2026-05-06 00:20 | 14.37206 | 121.02391 | 7187 ft | 261 kts | 233° |
| 2026-05-06 00:20 | 14.36513 | 121.00684 | 7766 ft | 265 kts | 267° |
| 2026-05-06 00:20 | 14.36881 | 120.98865 | 8371 ft | 264 kts | 303° |
| 2026-05-06 00:21 | 14.38085 | 120.97463 | 8963 ft | 263 kts | 321° |
| 2026-05-06 00:21 | 14.39520 | 120.96258 | 9532 ft | 267 kts | 322° |
| 2026-05-06 00:21 | 14.40949 | 120.95033 | 10094 ft | 269 kts | 324° |
| 2026-05-06 00:21 | 14.42593 | 120.94092 | 10612 ft | 270 kts | 343° |
| 2026-05-06 00:22 | 14.44436 | 120.93533 | 10899 ft | 284 kts | 347° |
| 2026-05-06 00:22 | 14.46417 | 120.93010 | 11166 ft | 300 kts | 347° |
| 2026-05-06 00:22 | 14.48495 | 120.92447 | 11427 ft | 315 kts | 346° |
| 2026-05-06 00:22 | 14.50663 | 120.91843 | 11685 ft | 330 kts | 348° |
| 2026-05-06 00:23 | 14.52990 | 120.91441 | 11935 ft | 344 kts | 356° |
| 2026-05-06 00:23 | 14.55424 | 120.91412 | 12179 ft | 357 kts | 4° |
| 2026-05-06 00:23 | 14.57984 | 120.91599 | 12416 ft | 371 kts | 6° |
| 2026-05-06 00:23 | 14.60612 | 120.91827 | 12643 ft | 385 kts | 6° |
| 2026-05-06 00:24 | 14.63322 | 120.92062 | 12991 ft | 394 kts | 6° |
| 2026-05-06 00:24 | 14.66100 | 120.92297 | 13516 ft | 397 kts | 6° |
| 2026-05-06 00:24 | 14.68887 | 120.92529 | 14065 ft | 400 kts | 6° |
| 2026-05-06 00:24 | 14.71644 | 120.92755 | 14575 ft | 403 kts | 5° |
| 2026-05-06 00:25 | 14.74488 | 120.92986 | 15073 ft | 407 kts | 5° |
| 2026-05-06 00:25 | 14.77303 | 120.93214 | 15552 ft | 410 kts | 5° |
| 2026-05-06 00:25 | 14.80168 | 120.93448 | 16041 ft | 413 kts | 5° |
| 2026-05-06 00:25 | 14.83083 | 120.93686 | 16514 ft | 417 kts | 5° |
| 2026-05-06 00:26 | 14.85956 | 120.93924 | 16974 ft | 420 kts | 6° |
| 2026-05-06 00:26 | 14.88907 | 120.94283 | 17430 ft | 423 kts | 8° |
| 2026-05-06 00:26 | 14.91814 | 120.94680 | 17893 ft | 426 kts | 8° |
| 2026-05-06 00:26 | 14.94803 | 120.95094 | 18360 ft | 430 kts | 8° |
| 2026-05-06 00:27 | 14.97794 | 120.95509 | 18817 ft | 433 kts | 8° |
| 2026-05-06 00:27 | 15.00794 | 120.95924 | 19280 ft | 436 kts | 8° |
| 2026-05-06 00:27 | 15.03818 | 120.96342 | 19740 ft | 438 kts | 8° |
| 2026-05-06 00:27 | 15.06857 | 120.96759 | 20194 ft | 441 kts | 8° |
| 2026-05-06 00:28 | 15.09889 | 120.97177 | 20618 ft | 444 kts | 8° |
| 2026-05-06 00:28 | 15.12969 | 120.97601 | 21023 ft | 447 kts | 8° |
| 2026-05-06 00:28 | 15.16102 | 120.98032 | 21410 ft | 451 kts | 7° |
| 2026-05-06 00:28 | 15.19213 | 120.98460 | 21778 ft | 454 kts | 7° |
| 2026-05-06 00:29 | 15.22386 | 120.98897 | 22163 ft | 457 kts | 7° |
| 2026-05-06 00:29 | 15.25558 | 120.99332 | 22561 ft | 460 kts | 7° |
| 2026-05-06 00:29 | 15.28733 | 120.99769 | 22965 ft | 462 kts | 7° |
| 2026-05-06 00:29 | 15.31953 | 121.00212 | 23362 ft | 464 kts | 7° |
| 2026-05-06 00:30 | 15.35151 | 121.00651 | 23753 ft | 466 kts | 7° |
| 2026-05-06 00:30 | 15.38429 | 121.01102 | 24141 ft | 469 kts | 7° |
| 2026-05-06 00:30 | 15.41659 | 121.01546 | 24531 ft | 471 kts | 7° |
| 2026-05-06 00:30 | 15.44908 | 121.02168 | 24878 ft | 473 kts | 17° |
| 2026-05-06 00:31 | 15.47840 | 121.03682 | 25199 ft | 478 kts | 35° |
| 2026-05-06 00:31 | 15.50261 | 121.06039 | 25553 ft | 481 kts | 51° |
| 2026-05-06 00:31 | 15.52055 | 121.08984 | 25904 ft | 483 kts | 60° |
| 2026-05-06 00:31 | 15.53724 | 121.12013 | 26222 ft | 486 kts | 59° |
| 2026-05-06 00:32 | 15.55413 | 121.15047 | 26531 ft | 489 kts | 59° |
| 2026-05-06 00:32 | 15.57137 | 121.18119 | 26840 ft | 492 kts | 59° |
| 2026-05-06 00:32 | 15.58868 | 121.21191 | 27157 ft | 494 kts | 59° |
| 2026-05-06 00:32 | 15.60617 | 121.24288 | 27467 ft | 497 kts | 59° |
| 2026-05-06 00:33 | 15.62371 | 121.27390 | 27769 ft | 499 kts | 59° |
| 2026-05-06 00:33 | 15.64121 | 121.30485 | 28071 ft | 502 kts | 59° |
| 2026-05-06 00:33 | 15.65895 | 121.33621 | 28438 ft | 502 kts | 59° |
| 2026-05-06 00:33 | 15.67663 | 121.36749 | 28894 ft | 501 kts | 59° |
| 2026-05-06 00:34 | 15.69420 | 121.39857 | 29359 ft | 500 kts | 59° |
| 2026-05-06 00:34 | 15.71174 | 121.42960 | 29793 ft | 499 kts | 59° |
| 2026-05-06 00:34 | 15.72921 | 121.46053 | 30233 ft | 498 kts | 58° |
| 2026-05-06 00:34 | 15.74672 | 121.49156 | 30666 ft | 497 kts | 58° |
| 2026-05-06 00:35 | 15.76418 | 121.52250 | 31091 ft | 496 kts | 58° |
| 2026-05-06 00:35 | 15.78155 | 121.55328 | 31495 ft | 496 kts | 58° |
| 2026-05-06 00:35 | 15.79890 | 121.58405 | 31892 ft | 495 kts | 58° |
| 2026-05-06 00:35 | 15.81635 | 121.61501 | 32306 ft | 495 kts | 58° |
| 2026-05-06 00:36 | 15.83356 | 121.64555 | 32719 ft | 494 kts | 58° |
| 2026-05-06 00:36 | 15.85094 | 121.67639 | 33156 ft | 493 kts | 58° |
| 2026-05-06 00:36 | 15.86820 | 121.70703 | 33575 ft | 492 kts | 59° |
| 2026-05-06 00:36 | 15.88542 | 121.73762 | 33992 ft | 491 kts | 59° |
| 2026-05-06 00:37 | 15.90277 | 121.76848 | 34404 ft | 490 kts | 59° |
| 2026-05-06 00:37 | 15.91991 | 121.79896 | 34797 ft | 490 kts | 58° |
| 2026-05-06 00:37 | 15.93703 | 121.82942 | 35194 ft | 489 kts | 59° |
| 2026-05-06 00:37 | 15.95416 | 121.85992 | 35566 ft | 488 kts | 59° |
| 2026-05-06 00:38 | 15.97117 | 121.89021 | 35922 ft | 487 kts | 59° |
| 2026-05-06 00:38 | 15.98814 | 121.92046 | 36250 ft | 487 kts | 58° |
| 2026-05-06 00:38 | 16.00526 | 121.95097 | 36552 ft | 487 kts | 58° |
| 2026-05-06 00:38 | 16.02238 | 121.98151 | 36842 ft | 487 kts | 58° |
| 2026-05-06 00:39 | 16.03951 | 122.01205 | 37112 ft | 487 kts | 58° |
| 2026-05-06 00:39 | 16.05663 | 122.04260 | 37350 ft | 488 kts | 59° |
| 2026-05-06 00:39 | 16.07380 | 122.07323 | 37559 ft | 490 kts | 59° |
| 2026-05-06 00:39 | 16.09103 | 122.10400 | 37758 ft | 491 kts | 59° |
| 2026-05-06 00:40 | 16.10820 | 122.13467 | 37966 ft | 492 kts | 59° |
| 2026-05-06 00:40 | 16.12549 | 122.16560 | 38181 ft | 493 kts | 59° |
| 2026-05-06 00:40 | 16.14273 | 122.19643 | 38377 ft | 494 kts | 59° |
| 2026-05-06 00:40 | 16.15982 | 122.22701 | 38562 ft | 495 kts | 59° |
| 2026-05-06 00:41 | 16.17731 | 122.25832 | 38762 ft | 496 kts | 59° |
| 2026-05-06 00:41 | 16.19471 | 122.28949 | 38937 ft | 497 kts | 59° |
| 2026-05-06 00:41 | 16.21205 | 122.32058 | 38943 ft | 497 kts | 59° |
| 2026-05-06 00:42 | 16.24659 | 122.38251 | 38945 ft | 496 kts | 59° |
| 2026-05-06 00:42 | 16.28115 | 122.44454 | 38941 ft | 496 kts | 59° |
| 2026-05-06 00:43 | 16.31611 | 122.50731 | 38942 ft | 497 kts | 59° |
| 2026-05-06 00:43 | 16.35062 | 122.56932 | 38935 ft | 497 kts | 59° |
| 2026-05-06 00:44 | 16.38540 | 122.63191 | 38930 ft | 501 kts | 59° |
| 2026-05-06 00:44 | 16.42048 | 122.69507 | 38929 ft | 501 kts | 59° |
| 2026-05-06 00:45 | 16.45538 | 122.75799 | 38927 ft | 501 kts | 59° |
| 2026-05-06 00:45 | 16.49015 | 122.82073 | 38926 ft | 501 kts | 59° |
| 2026-05-06 00:46 | 16.52503 | 122.88372 | 38925 ft | 501 kts | 59° |
| 2026-05-06 00:46 | 16.55979 | 122.94653 | 38925 ft | 502 kts | 59° |
| 2026-05-06 00:47 | 16.59476 | 123.00978 | 38925 ft | 502 kts | 59° |
| 2026-05-06 00:47 | 16.62969 | 123.07303 | 38933 ft | 502 kts | 59° |
| 2026-05-06 00:48 | 16.66449 | 123.13610 | 38938 ft | 503 kts | 59° |
| 2026-05-06 00:48 | 16.69936 | 123.19934 | 38940 ft | 503 kts | 59° |
| 2026-05-06 00:49 | 16.73403 | 123.26229 | 38939 ft | 503 kts | 59° |
| 2026-05-06 00:49 | 16.76907 | 123.32597 | 38944 ft | 504 kts | 59° |
| 2026-05-06 00:50 | 16.80386 | 123.38924 | 38940 ft | 504 kts | 59° |
| 2026-05-06 00:50 | 16.83853 | 123.45237 | 38942 ft | 504 kts | 59° |
| 2026-05-06 00:51 | 16.87343 | 123.51595 | 38942 ft | 505 kts | 59° |
| 2026-05-06 00:51 | 16.90847 | 123.57988 | 38943 ft | 505 kts | 59° |
| 2026-05-06 00:52 | 16.94328 | 123.64343 | 38943 ft | 505 kts | 59° |
| 2026-05-06 00:52 | 16.97802 | 123.70690 | 38944 ft | 505 kts | 60° |
| 2026-05-06 00:53 | 17.01305 | 123.77097 | 38944 ft | 505 kts | 60° |
| 2026-05-06 00:53 | 17.04770 | 123.83440 | 38944 ft | 506 kts | 60° |
| 2026-05-06 00:54 | 17.08274 | 123.89862 | 38945 ft | 506 kts | 60° |
| 2026-05-06 00:54 | 17.11759 | 123.96252 | 38944 ft | 507 kts | 60° |
| 2026-05-06 00:55 | 17.15241 | 124.02646 | 38945 ft | 508 kts | 60° |
| 2026-05-06 00:55 | 17.18744 | 124.09085 | 38946 ft | 507 kts | 60° |
| 2026-05-06 00:56 | 17.22232 | 124.15503 | 38946 ft | 511 kts | 60° |
| 2026-05-06 00:56 | 17.25783 | 124.22040 | 38944 ft | 518 kts | 60° |
| 2026-05-06 00:57 | 17.29345 | 124.28606 | 38945 ft | 522 kts | 60° |
| 2026-05-06 00:57 | 17.32764 | 124.35282 | 38944 ft | 523 kts | 66° |
| 2026-05-06 00:58 | 17.35030 | 124.42499 | 38945 ft | 523 kts | 78° |
| 2026-05-06 00:58 | 17.35860 | 124.50053 | 38944 ft | 521 kts | 91° |
| 2026-05-06 00:59 | 17.35341 | 124.57566 | 38945 ft | 520 kts | 98° |
| 2026-05-06 00:59 | 17.34440 | 124.65068 | 38944 ft | 520 kts | 99° |
| 2026-05-06 01:00 | 17.33550 | 124.72545 | 38945 ft | 521 kts | 99° |
| 2026-05-06 01:00 | 17.32672 | 124.80083 | 38948 ft | 520 kts | 98° |
| 2026-05-06 01:01 | 17.31809 | 124.87550 | 38944 ft | 520 kts | 98° |
| 2026-05-06 01:01 | 17.30939 | 124.95088 | 38944 ft | 519 kts | 98° |
| 2026-05-06 01:02 | 17.30073 | 125.02571 | 38945 ft | 518 kts | 99° |
| 2026-05-06 01:02 | 17.29209 | 125.10008 | 38946 ft | 518 kts | 99° |
| 2026-05-06 01:03 | 17.28337 | 125.17486 | 38940 ft | 518 kts | 99° |
| 2026-05-06 01:03 | 17.27459 | 125.24983 | 38942 ft | 519 kts | 99° |
| 2026-05-06 01:04 | 17.26582 | 125.32447 | 38942 ft | 519 kts | 99° |
| 2026-05-06 01:04 | 17.25705 | 125.39890 | 38940 ft | 519 kts | 99° |
| 2026-05-06 01:05 | 17.24818 | 125.47408 | 38939 ft | 520 kts | 99° |
| 2026-05-06 01:05 | 17.23937 | 125.54851 | 38933 ft | 519 kts | 99° |
| 2026-05-06 01:06 | 17.23047 | 125.62327 | 38928 ft | 519 kts | 99° |
| 2026-05-06 01:06 | 17.22152 | 125.69837 | 38927 ft | 519 kts | 99° |
| 2026-05-06 01:07 | 17.21262 | 125.77267 | 38926 ft | 518 kts | 99° |
| 2026-05-06 01:07 | 17.20366 | 125.84736 | 38924 ft | 518 kts | 99° |
| 2026-05-06 01:08 | 17.19469 | 125.92191 | 38918 ft | 518 kts | 99° |
| 2026-05-06 01:08 | 17.18563 | 125.99684 | 38921 ft | 518 kts | 99° |
| 2026-05-06 01:09 | 17.17664 | 126.07117 | 38924 ft | 518 kts | 99° |
| 2026-05-06 01:09 | 17.16758 | 126.14572 | 38926 ft | 518 kts | 99° |
| 2026-05-06 01:10 | 17.15851 | 126.22012 | 38929 ft | 518 kts | 99° |
| 2026-05-06 01:10 | 17.14941 | 126.29460 | 38931 ft | 518 kts | 99° |
| 2026-05-06 01:11 | 17.14025 | 126.36951 | 38933 ft | 518 kts | 99° |
| 2026-05-06 01:11 | 17.13113 | 126.44379 | 38934 ft | 518 kts | 99° |
| 2026-05-06 01:12 | 17.12195 | 126.51833 | 38936 ft | 518 kts | 99° |
| 2026-05-06 01:12 | 17.11270 | 126.59277 | 38940 ft | 517 kts | 99° |
| 2026-05-06 01:13 | 17.10344 | 126.66688 | 38942 ft | 516 kts | 99° |
| 2026-05-06 01:13 | 17.09413 | 126.74149 | 38944 ft | 516 kts | 99° |
| 2026-05-06 01:14 | 17.08026 | 126.85257 | 38944 ft | 517 kts | 99° |
| 2026-05-06 01:14 | 17.07090 | 126.92725 | 38944 ft | 517 kts | 99° |
| 2026-05-06 01:15 | 17.06157 | 127.00143 | 38944 ft | 517 kts | 99° |
| 2026-05-06 01:15 | 17.05220 | 127.07571 | 38944 ft | 517 kts | 99° |
| 2026-05-06 01:16 | 17.04275 | 127.15036 | 38944 ft | 517 kts | 99° |
| 2026-05-06 01:16 | 17.03335 | 127.22433 | 38944 ft | 518 kts | 99° |
| 2026-05-06 01:17 | 17.02383 | 127.29923 | 38944 ft | 517 kts | 99° |
| 2026-05-06 01:17 | 17.01441 | 127.37315 | 38944 ft | 516 kts | 99° |
| 2026-05-06 01:18 | 17.00490 | 127.44754 | 38944 ft | 517 kts | 99° |
| 2026-05-06 01:18 | 16.99534 | 127.52211 | 38943 ft | 518 kts | 99° |
| 2026-05-06 01:19 | 16.98575 | 127.59647 | 38943 ft | 518 kts | 99° |
| 2026-05-06 01:19 | 16.97612 | 127.67103 | 38943 ft | 519 kts | 100° |
| 2026-05-06 01:20 | 16.96652 | 127.74515 | 38942 ft | 519 kts | 99° |
| 2026-05-06 01:20 | 16.95683 | 127.81970 | 38944 ft | 520 kts | 99° |
| 2026-05-06 01:21 | 16.94707 | 127.89468 | 38943 ft | 519 kts | 99° |
| 2026-05-06 01:21 | 16.93739 | 127.96886 | 38944 ft | 519 kts | 99° |
| 2026-05-06 01:22 | 16.92758 | 128.04387 | 38942 ft | 519 kts | 100° |
| 2026-05-06 01:22 | 16.91780 | 128.11832 | 38938 ft | 519 kts | 100° |
| 2026-05-06 01:23 | 16.90796 | 128.19295 | 38943 ft | 519 kts | 100° |
| 2026-05-06 01:23 | 16.89817 | 128.26701 | 38938 ft | 519 kts | 100° |
| 2026-05-06 01:24 | 16.88823 | 128.34201 | 38943 ft | 520 kts | 99° |
| 2026-05-06 01:24 | 16.87834 | 128.41640 | 38940 ft | 520 kts | 99° |
| 2026-05-06 01:25 | 16.86839 | 128.49116 | 38940 ft | 520 kts | 99° |
| 2026-05-06 01:25 | 16.85843 | 128.56576 | 38937 ft | 519 kts | 100° |
| 2026-05-06 01:26 | 16.84848 | 128.64008 | 38940 ft | 519 kts | 100° |
| 2026-05-06 01:26 | 16.83848 | 128.71455 | 38936 ft | 519 kts | 100° |
| 2026-05-06 01:27 | 16.82842 | 128.78914 | 38939 ft | 519 kts | 100° |
| 2026-05-06 01:27 | 16.81842 | 128.86324 | 38939 ft | 519 kts | 100° |
| 2026-05-06 01:28 | 16.80827 | 128.93803 | 38935 ft | 519 kts | 100° |
| 2026-05-06 01:28 | 16.79815 | 129.01247 | 38938 ft | 519 kts | 100° |
| 2026-05-06 01:29 | 16.78802 | 129.08693 | 38940 ft | 520 kts | 100° |
| 2026-05-06 01:29 | 16.77782 | 129.16156 | 38940 ft | 520 kts | 100° |
| 2026-05-06 01:30 | 16.76763 | 129.23601 | 38939 ft | 520 kts | 100° |
| 2026-05-06 01:30 | 16.75741 | 129.31053 | 38940 ft | 520 kts | 100° |
| 2026-05-06 01:31 | 16.74714 | 129.38506 | 38939 ft | 519 kts | 100° |
| 2026-05-06 01:31 | 16.73691 | 129.45920 | 38940 ft | 519 kts | 100° |
| 2026-05-06 01:32 | 16.72657 | 129.53381 | 38938 ft | 520 kts | 100° |
| 2026-05-06 01:32 | 16.71627 | 129.60803 | 38938 ft | 519 kts | 100° |
| 2026-05-06 01:33 | 16.70588 | 129.68283 | 38936 ft | 519 kts | 101° |
| 2026-05-06 01:33 | 16.69554 | 129.75717 | 38937 ft | 520 kts | 100° |
| 2026-05-06 01:34 | 16.68514 | 129.83166 | 38936 ft | 520 kts | 101° |
| 2026-05-06 01:34 | 16.67643 | 129.90646 | 38931 ft | 523 kts | 93° |
| 2026-05-06 01:35 | 16.68493 | 129.98126 | 38937 ft | 526 kts | 75° |
| 2026-05-06 01:35 | 16.71408 | 130.05138 | 38937 ft | 527 kts | 58° |
| 2026-05-06 01:36 | 16.76023 | 130.11041 | 38944 ft | 527 kts | 45° |
| 2026-05-06 01:36 | 16.81105 | 130.16534 | 38944 ft | 526 kts | 45° |
| 2026-05-06 01:37 | 16.86177 | 130.22032 | 38945 ft | 526 kts | 45° |
| 2026-05-06 01:37 | 16.91218 | 130.27548 | 38944 ft | 526 kts | 45° |
| 2026-05-06 01:38 | 16.96282 | 130.33116 | 38944 ft | 527 kts | 45° |
| 2026-05-06 01:38 | 17.01317 | 130.38666 | 38944 ft | 527 kts | 45° |
| 2026-05-06 01:39 | 17.06360 | 130.44231 | 38944 ft | 527 kts | 45° |
| 2026-05-06 01:39 | 17.11404 | 130.49799 | 38944 ft | 528 kts | 45° |
| 2026-05-06 01:40 | 17.16429 | 130.55350 | 38946 ft | 527 kts | 45° |
| 2026-05-06 01:40 | 17.21473 | 130.60930 | 38946 ft | 527 kts | 45° |
| 2026-05-06 01:41 | 17.26500 | 130.66492 | 38943 ft | 527 kts | 45° |
| 2026-05-06 01:41 | 17.31527 | 130.72063 | 38944 ft | 527 kts | 45° |
| 2026-05-06 01:42 | 17.36586 | 130.77670 | 38944 ft | 528 kts | 45° |
| 2026-05-06 01:42 | 17.41612 | 130.83249 | 38944 ft | 528 kts | 45° |
| 2026-05-06 01:43 | 17.46658 | 130.88852 | 38944 ft | 527 kts | 45° |
| 2026-05-06 01:43 | 17.51682 | 130.94435 | 38944 ft | 528 kts | 45° |
| 2026-05-06 01:44 | 17.56723 | 131.00044 | 38946 ft | 528 kts | 45° |
| 2026-05-06 01:44 | 17.61768 | 131.05662 | 38944 ft | 529 kts | 45° |
| 2026-05-06 01:45 | 17.66788 | 131.11258 | 38945 ft | 529 kts | 45° |
| 2026-05-06 01:45 | 17.71827 | 131.16881 | 38945 ft | 528 kts | 45° |
| 2026-05-06 01:46 | 17.76864 | 131.22504 | 38948 ft | 528 kts | 45° |
| 2026-05-06 01:46 | 17.81871 | 131.28099 | 38947 ft | 528 kts | 45° |
| 2026-05-06 01:47 | 17.86903 | 131.33725 | 38947 ft | 529 kts | 45° |
| 2026-05-06 01:47 | 17.91928 | 131.39349 | 38953 ft | 529 kts | 45° |
| 2026-05-06 01:48 | 17.96982 | 131.45013 | 38957 ft | 529 kts | 45° |
| 2026-05-06 01:48 | 18.02024 | 131.50668 | 38969 ft | 529 kts | 45° |
| 2026-05-06 01:49 | 18.07037 | 131.56296 | 38967 ft | 529 kts | 44° |
| 2026-05-06 01:49 | 18.12074 | 131.61955 | 38970 ft | 529 kts | 44° |
| 2026-05-06 01:50 | 18.17093 | 131.67598 | 38968 ft | 529 kts | 45° |
| 2026-05-06 01:50 | 18.22101 | 131.73235 | 38969 ft | 529 kts | 45° |
| 2026-05-06 01:51 | 18.27158 | 131.78929 | 38972 ft | 529 kts | 45° |
| 2026-05-06 01:51 | 18.32167 | 131.84575 | 38968 ft | 530 kts | 45° |
| 2026-05-06 01:52 | 18.37213 | 131.90273 | 38973 ft | 530 kts | 45° |
| 2026-05-06 01:52 | 18.42230 | 131.95940 | 38973 ft | 530 kts | 45° |
| 2026-05-06 01:53 | 18.47266 | 132.01634 | 38972 ft | 529 kts | 45° |
| 2026-05-06 01:53 | 18.52279 | 132.07307 | 38967 ft | 528 kts | 45° |
| 2026-05-06 01:54 | 18.57288 | 132.12981 | 38966 ft | 530 kts | 44° |
| 2026-05-06 01:54 | 18.62290 | 132.18651 | 38967 ft | 530 kts | 45° |
| 2026-05-06 01:55 | 18.67317 | 132.24356 | 38967 ft | 530 kts | 45° |
| 2026-05-06 01:55 | 18.72320 | 132.30039 | 38965 ft | 530 kts | 45° |
| 2026-05-06 01:56 | 18.77352 | 132.35761 | 38965 ft | 531 kts | 44° |
| 2026-05-06 01:56 | 18.82366 | 132.41467 | 38964 ft | 531 kts | 45° |
| 2026-05-06 01:57 | 18.87385 | 132.47183 | 38964 ft | 531 kts | 45° |
| 2026-05-06 01:57 | 18.92400 | 132.52901 | 38964 ft | 530 kts | 44° |
| 2026-05-06 01:58 | 18.97406 | 132.58617 | 38965 ft | 530 kts | 44° |
| 2026-05-06 01:58 | 19.02399 | 132.64320 | 38966 ft | 529 kts | 44° |
| 2026-05-06 01:59 | 19.07409 | 132.70047 | 38965 ft | 530 kts | 45° |
| 2026-05-06 01:59 | 19.12403 | 132.75761 | 38967 ft | 530 kts | 45° |
| 2026-05-06 02:00 | 19.17399 | 132.81485 | 38967 ft | 530 kts | 45° |
| 2026-05-06 02:00 | 19.22417 | 132.87242 | 38970 ft | 530 kts | 45° |
| 2026-05-06 02:01 | 19.27427 | 132.92995 | 38970 ft | 530 kts | 44° |
| 2026-05-06 02:01 | 19.32397 | 132.98703 | 38970 ft | 531 kts | 45° |
| 2026-05-06 02:02 | 19.37428 | 133.04489 | 38969 ft | 532 kts | 44° |
| 2026-05-06 02:02 | 19.42420 | 133.10236 | 38972 ft | 532 kts | 45° |
| 2026-05-06 02:03 | 19.47420 | 133.15997 | 38974 ft | 531 kts | 44° |
| 2026-05-06 02:03 | 19.52401 | 133.21744 | 38975 ft | 531 kts | 44° |
| 2026-05-06 02:04 | 19.57396 | 133.27510 | 38978 ft | 531 kts | 44° |
| 2026-05-06 02:04 | 19.62408 | 133.33304 | 38980 ft | 530 kts | 44° |
| 2026-05-06 02:05 | 19.67366 | 133.39037 | 38980 ft | 530 kts | 44° |
| 2026-05-06 02:05 | 19.72367 | 133.44827 | 38980 ft | 529 kts | 44° |
| 2026-05-06 02:06 | 19.77339 | 133.50594 | 38977 ft | 529 kts | 44° |
| 2026-05-06 02:06 | 19.82297 | 133.56346 | 38974 ft | 529 kts | 44° |
| 2026-05-06 02:07 | 19.87234 | 133.62080 | 38978 ft | 528 kts | 44° |
| 2026-05-06 02:07 | 19.92217 | 133.67871 | 38979 ft | 529 kts | 45° |
| 2026-05-06 02:08 | 19.97155 | 133.73618 | 38984 ft | 529 kts | 45° |
| 2026-05-06 02:08 | 20.02133 | 133.79417 | 38985 ft | 528 kts | 45° |
| 2026-05-06 02:09 | 20.07083 | 133.85194 | 38990 ft | 528 kts | 44° |
| 2026-05-06 02:09 | 20.12052 | 133.90994 | 38987 ft | 528 kts | 44° |
| 2026-05-06 02:10 | 20.17018 | 133.96797 | 38990 ft | 528 kts | 44° |
| 2026-05-06 02:10 | 20.21951 | 134.02568 | 38992 ft | 528 kts | 44° |
| 2026-05-06 02:11 | 20.26880 | 134.08337 | 38994 ft | 528 kts | 44° |
| 2026-05-06 02:11 | 20.31818 | 134.14123 | 38994 ft | 528 kts | 44° |
| 2026-05-06 02:12 | 20.36799 | 134.19968 | 38998 ft | 529 kts | 44° |
| 2026-05-06 02:12 | 20.41707 | 134.25732 | 38993 ft | 529 kts | 44° |
| 2026-05-06 02:13 | 20.46648 | 134.31545 | 38998 ft | 528 kts | 44° |
| 2026-05-06 02:13 | 20.51597 | 134.37367 | 38999 ft | 528 kts | 44° |
| 2026-05-06 02:14 | 20.56532 | 134.43184 | 38999 ft | 528 kts | 44° |
| 2026-05-06 02:14 | 20.61447 | 134.48979 | 39000 ft | 527 kts | 44° |
| 2026-05-06 02:15 | 20.66369 | 134.54790 | 38998 ft | 528 kts | 44° |
| 2026-05-06 02:15 | 20.71301 | 134.60620 | 38997 ft | 528 kts | 44° |
| 2026-05-06 02:16 | 20.76202 | 134.66420 | 39000 ft | 528 kts | 45° |
| 2026-05-06 02:16 | 20.81137 | 134.72263 | 38997 ft | 528 kts | 45° |
| 2026-05-06 02:17 | 20.86093 | 134.78142 | 39000 ft | 529 kts | 45° |
| 2026-05-06 02:17 | 20.91034 | 134.84009 | 39000 ft | 529 kts | 44° |
| 2026-05-06 02:18 | 20.96389 | 134.89357 | 39004 ft | 520 kts | 31° |
| 2026-05-06 02:18 | 21.02697 | 134.92966 | 39005 ft | 509 kts | 15° |
| 2026-05-06 02:19 | 21.09507 | 134.94702 | 39002 ft | 498 kts | 0° |
| 2026-05-06 02:19 | 21.16405 | 134.94934 | 39008 ft | 493 kts | 355° |
| 2026-05-06 02:20 | 21.26736 | 134.94972 | 39005 ft | 494 kts | 355° |
| 2026-05-06 02:21 | 21.33585 | 134.95020 | 39005 ft | 494 kts | 355° |
| 2026-05-06 02:21 | 21.40481 | 134.95076 | 39005 ft | 494 kts | 355° |
| 2026-05-06 02:22 | 21.47359 | 134.95137 | 39008 ft | 494 kts | 355° |
| 2026-05-06 02:22 | 21.54291 | 134.95201 | 39005 ft | 494 kts | 355° |
| 2026-05-06 02:23 | 21.61170 | 134.95265 | 39005 ft | 494 kts | 355° |
| 2026-05-06 02:23 | 21.68032 | 134.95328 | 39005 ft | 495 kts | 355° |
| 2026-05-06 02:24 | 21.74962 | 134.95392 | 39005 ft | 496 kts | 355° |
| 2026-05-06 02:24 | 21.81870 | 134.95453 | 39005 ft | 496 kts | 355° |
| 2026-05-06 02:25 | 21.88803 | 134.95519 | 39006 ft | 495 kts | 355° |
| 2026-05-06 02:25 | 21.95664 | 134.95581 | 39006 ft | 494 kts | 355° |
| 2026-05-06 02:26 | 22.02548 | 134.95645 | 39009 ft | 494 kts | 355° |
| 2026-05-06 02:26 | 22.09471 | 134.95706 | 39007 ft | 495 kts | 356° |
| 2026-05-06 02:27 | 22.16346 | 134.95769 | 39014 ft | 496 kts | 355° |
| 2026-05-06 02:27 | 22.23283 | 134.95834 | 39008 ft | 496 kts | 356° |
| 2026-05-06 02:28 | 22.30183 | 134.95900 | 39014 ft | 496 kts | 355° |
| 2026-05-06 02:28 | 22.37120 | 134.95962 | 39009 ft | 497 kts | 356° |
| 2026-05-06 02:29 | 22.44031 | 134.96028 | 39015 ft | 497 kts | 355° |
| 2026-05-06 02:29 | 22.50990 | 134.96094 | 39013 ft | 497 kts | 355° |
| 2026-05-06 02:30 | 22.57873 | 134.96156 | 39007 ft | 497 kts | 355° |
| 2026-05-06 02:30 | 22.64785 | 134.96222 | 39014 ft | 497 kts | 355° |
| 2026-05-06 02:31 | 22.71705 | 134.96284 | 39011 ft | 497 kts | 355° |
| 2026-05-06 02:31 | 22.78672 | 134.96349 | 39010 ft | 497 kts | 355° |
| 2026-05-06 02:32 | 22.85593 | 134.96413 | 39013 ft | 497 kts | 356° |
| 2026-05-06 02:32 | 22.92491 | 134.96475 | 39012 ft | 498 kts | 356° |
| 2026-05-06 02:33 | 22.99474 | 134.96542 | 39012 ft | 499 kts | 356° |
| 2026-05-06 02:33 | 23.01758 | 134.96564 | 39010 ft | 499 kts | 356° |
| 2026-05-06 02:34 | 23.13387 | 134.96675 | 39013 ft | 499 kts | 356° |
| 2026-05-06 02:34 | 23.20388 | 134.96739 | 39012 ft | 499 kts | 356° |
| 2026-05-06 02:35 | 23.27332 | 134.96805 | 39012 ft | 499 kts | 356° |
| 2026-05-06 02:35 | 23.34308 | 134.96870 | 39014 ft | 500 kts | 356° |
| 2026-05-06 02:36 | 23.41317 | 134.96936 | 39019 ft | 501 kts | 356° |
| 2026-05-06 02:36 | 23.48280 | 134.97003 | 39024 ft | 501 kts | 356° |
| 2026-05-06 02:37 | 23.55293 | 134.97069 | 39029 ft | 502 kts | 356° |
| 2026-05-06 02:37 | 23.62274 | 134.97133 | 39031 ft | 502 kts | 356° |
| 2026-05-06 02:38 | 23.69161 | 134.97200 | 39032 ft | 502 kts | 356° |
| 2026-05-06 02:38 | 23.76140 | 134.97267 | 39030 ft | 502 kts | 356° |
| 2026-05-06 02:39 | 23.83155 | 134.97333 | 39031 ft | 503 kts | 356° |
| 2026-05-06 02:39 | 23.90192 | 134.97400 | 39032 ft | 503 kts | 356° |
| 2026-05-06 02:40 | 23.97205 | 134.97466 | 39025 ft | 504 kts | 356° |
| 2026-05-06 02:40 | 24.04242 | 134.97533 | 39026 ft | 504 kts | 356° |
| 2026-05-06 02:41 | 24.11277 | 134.97598 | 39019 ft | 504 kts | 356° |
| 2026-05-06 02:41 | 24.18301 | 134.97665 | 39024 ft | 505 kts | 356° |
| 2026-05-06 02:42 | 24.25337 | 134.97734 | 39023 ft | 506 kts | 356° |
| 2026-05-06 02:42 | 24.32430 | 134.97800 | 39026 ft | 506 kts | 356° |
| 2026-05-06 02:43 | 24.39499 | 134.97868 | 39023 ft | 507 kts | 356° |
| 2026-05-06 02:43 | 24.46603 | 134.97935 | 39024 ft | 507 kts | 356° |
| 2026-05-06 02:44 | 24.53671 | 134.98003 | 39023 ft | 508 kts | 356° |
| 2026-05-06 02:44 | 24.60769 | 134.98071 | 39025 ft | 508 kts | 355° |
| 2026-05-06 02:45 | 24.67837 | 134.98138 | 39023 ft | 508 kts | 355° |
| 2026-05-06 02:45 | 24.74913 | 134.98206 | 39027 ft | 509 kts | 356° |
| 2026-05-06 02:46 | 24.82032 | 134.98274 | 39025 ft | 510 kts | 355° |
| 2026-05-06 02:46 | 24.89133 | 134.98341 | 39027 ft | 510 kts | 355° |
| 2026-05-06 02:47 | 24.96240 | 134.98410 | 39023 ft | 511 kts | 355° |
| 2026-05-06 02:47 | 25.03374 | 134.98479 | 39025 ft | 512 kts | 355° |
| 2026-05-06 02:48 | 25.10502 | 134.98547 | 39026 ft | 512 kts | 355° |
| 2026-05-06 02:48 | 25.17614 | 134.98614 | 39026 ft | 512 kts | 355° |
| 2026-05-06 02:49 | 25.24751 | 134.98682 | 39026 ft | 512 kts | 355° |
| 2026-05-06 02:49 | 25.31895 | 134.98749 | 39027 ft | 512 kts | 355° |
| 2026-05-06 02:50 | 25.39014 | 134.98828 | 39026 ft | 513 kts | 356° |
| 2026-05-06 02:50 | 25.46214 | 134.99522 | 39026 ft | 519 kts | 4° |
| 2026-05-06 02:51 | 25.53301 | 135.01195 | 39027 ft | 524 kts | 11° |
| 2026-05-06 02:51 | 25.60236 | 135.03871 | 39028 ft | 529 kts | 19° |
| 2026-05-06 02:52 | 25.66996 | 135.07101 | 39027 ft | 529 kts | 20° |
| 2026-05-06 02:52 | 25.73716 | 135.10362 | 39027 ft | 529 kts | 20° |
| 2026-05-06 02:53 | 25.80487 | 135.13632 | 39030 ft | 528 kts | 20° |
| 2026-05-06 02:53 | 25.87217 | 135.16873 | 39028 ft | 529 kts | 20° |
| 2026-05-06 02:54 | 25.93986 | 135.20134 | 39028 ft | 529 kts | 20° |
| 2026-05-06 02:54 | 26.00746 | 135.23392 | 39031 ft | 530 kts | 19° |
| 2026-05-06 02:55 | 26.07541 | 135.26672 | 39054 ft | 530 kts | 19° |
| 2026-05-06 02:55 | 26.14274 | 135.29927 | 39049 ft | 530 kts | 19° |
| 2026-05-06 02:56 | 26.21059 | 135.33211 | 39037 ft | 530 kts | 19° |
| 2026-05-06 02:56 | 26.27813 | 135.36484 | 39036 ft | 530 kts | 19° |
| 2026-05-06 02:57 | 26.34586 | 135.39769 | 39039 ft | 530 kts | 19° |
| 2026-05-06 02:57 | 26.41364 | 135.43060 | 39036 ft | 530 kts | 19° |
| 2026-05-06 02:58 | 26.48129 | 135.46352 | 39036 ft | 531 kts | 19° |
| 2026-05-06 02:58 | 26.54901 | 135.49649 | 39037 ft | 530 kts | 19° |
| 2026-05-06 02:59 | 26.61712 | 135.52969 | 39041 ft | 531 kts | 19° |
| 2026-05-06 02:59 | 26.68440 | 135.56259 | 39042 ft | 531 kts | 19° |
| 2026-05-06 03:00 | 26.75218 | 135.59572 | 39032 ft | 531 kts | 19° |
| 2026-05-06 03:00 | 26.82000 | 135.62889 | 39041 ft | 532 kts | 19° |
| 2026-05-06 03:01 | 26.88817 | 135.66232 | 39037 ft | 531 kts | 19° |
| 2026-05-06 03:01 | 26.95588 | 135.69556 | 39039 ft | 532 kts | 19° |
| 2026-05-06 03:02 | 27.02372 | 135.72890 | 39043 ft | 532 kts | 19° |
| 2026-05-06 03:02 | 27.09170 | 135.76236 | 39040 ft | 533 kts | 19° |
| 2026-05-06 03:03 | 27.15973 | 135.79588 | 39043 ft | 533 kts | 19° |
| 2026-05-06 03:03 | 27.22744 | 135.82930 | 39043 ft | 533 kts | 19° |
| 2026-05-06 03:04 | 27.29555 | 135.86296 | 39045 ft | 534 kts | 19° |
| 2026-05-06 03:04 | 27.36348 | 135.89655 | 39046 ft | 535 kts | 19° |
| 2026-05-06 03:05 | 27.43166 | 135.93028 | 39045 ft | 535 kts | 19° |
| 2026-05-06 03:05 | 27.49952 | 135.96393 | 39046 ft | 535 kts | 18° |
| 2026-05-06 03:06 | 27.56797 | 135.99789 | 39047 ft | 535 kts | 18° |
| 2026-05-06 03:06 | 27.63615 | 136.03178 | 39047 ft | 535 kts | 18° |
| 2026-05-06 03:07 | 27.70395 | 136.06551 | 39049 ft | 535 kts | 18° |
| 2026-05-06 03:07 | 27.77220 | 136.09952 | 39047 ft | 536 kts | 18° |
| 2026-05-06 03:08 | 27.84025 | 136.13348 | 39050 ft | 536 kts | 18° |
| 2026-05-06 03:08 | 27.90874 | 136.16769 | 39051 ft | 536 kts | 18° |
| 2026-05-06 03:09 | 27.97697 | 136.20184 | 39052 ft | 537 kts | 18° |
| 2026-05-06 03:09 | 28.04516 | 136.23604 | 39053 ft | 537 kts | 18° |
| 2026-05-06 03:10 | 28.11363 | 136.27039 | 39056 ft | 537 kts | 18° |
| 2026-05-06 03:10 | 28.18230 | 136.30492 | 39061 ft | 536 kts | 18° |
| 2026-05-06 03:11 | 28.25039 | 136.33914 | 39059 ft | 536 kts | 18° |
| 2026-05-06 03:11 | 28.31870 | 136.37358 | 39055 ft | 536 kts | 18° |
| 2026-05-06 03:12 | 28.38684 | 136.40796 | 39059 ft | 537 kts | 18° |
| 2026-05-06 03:12 | 28.45533 | 136.44260 | 39058 ft | 536 kts | 18° |
| 2026-05-06 03:13 | 28.52308 | 136.47687 | 39063 ft | 537 kts | 18° |
| 2026-05-06 03:13 | 28.59132 | 136.51146 | 39060 ft | 537 kts | 18° |
| 2026-05-06 03:14 | 28.65955 | 136.54611 | 39058 ft | 536 kts | 18° |
| 2026-05-06 03:14 | 28.72749 | 136.58063 | 39058 ft | 536 kts | 18° |
| 2026-05-06 03:15 | 28.79569 | 136.61536 | 39062 ft | 536 kts | 18° |
| 2026-05-06 03:15 | 28.86363 | 136.64998 | 39057 ft | 535 kts | 18° |
| 2026-05-06 03:16 | 28.93152 | 136.68463 | 39064 ft | 537 kts | 19° |
| 2026-05-06 03:16 | 28.99938 | 136.71935 | 39062 ft | 535 kts | 18° |
| 2026-05-06 03:17 | 29.06754 | 136.75423 | 39054 ft | 535 kts | 18° |
| 2026-05-06 03:17 | 29.13532 | 136.78899 | 39080 ft | 534 kts | 19° |
| 2026-05-06 03:18 | 29.20348 | 136.82393 | 39074 ft | 535 kts | 19° |
| 2026-05-06 03:18 | 29.27104 | 136.85867 | 39073 ft | 535 kts | 19° |
| 2026-05-06 03:19 | 29.33876 | 136.89357 | 39075 ft | 533 kts | 19° |
| 2026-05-06 03:19 | 29.40623 | 136.92837 | 39079 ft | 533 kts | 19° |
| 2026-05-06 03:20 | 29.50766 | 136.98076 | 39083 ft | 531 kts | 19° |
| 2026-05-06 03:20 | 29.57486 | 137.01556 | 39084 ft | 531 kts | 19° |
| 2026-05-06 03:21 | 29.64254 | 137.05063 | 39085 ft | 531 kts | 19° |
| 2026-05-06 03:21 | 29.70978 | 137.08551 | 39090 ft | 531 kts | 19° |
| 2026-05-06 03:22 | 29.77716 | 137.12058 | 39088 ft | 531 kts | 19° |
| 2026-05-06 03:22 | 29.84402 | 137.15540 | 39083 ft | 529 kts | 19° |
| 2026-05-06 03:23 | 29.91080 | 137.19020 | 39091 ft | 529 kts | 19° |
| 2026-05-06 03:23 | 29.97821 | 137.22539 | 39082 ft | 531 kts | 19° |
| 2026-05-06 03:24 | 30.04520 | 137.26045 | 39093 ft | 530 kts | 19° |
| 2026-05-06 03:24 | 30.11263 | 137.29584 | 39087 ft | 532 kts | 19° |
| 2026-05-06 03:25 | 30.17974 | 137.33109 | 39098 ft | 533 kts | 19° |
| 2026-05-06 03:25 | 30.24695 | 137.36646 | 39109 ft | 534 kts | 19° |
| 2026-05-06 03:26 | 30.31480 | 137.40219 | 39094 ft | 534 kts | 19° |
| 2026-05-06 03:26 | 30.38218 | 137.43779 | 39107 ft | 534 kts | 19° |
| 2026-05-06 03:27 | 30.44983 | 137.47356 | 39111 ft | 537 kts | 19° |
| 2026-05-06 03:27 | 30.51792 | 137.50958 | 39094 ft | 537 kts | 19° |
| 2026-05-06 03:28 | 30.58595 | 137.54564 | 39095 ft | 538 kts | 19° |
| 2026-05-06 03:28 | 30.65404 | 137.58185 | 39075 ft | 539 kts | 19° |
| 2026-05-06 03:29 | 30.72208 | 137.61800 | 39100 ft | 540 kts | 19° |
| 2026-05-06 03:29 | 30.79053 | 137.65449 | 39088 ft | 539 kts | 19° |
| 2026-05-06 03:30 | 30.85886 | 137.69087 | 39083 ft | 541 kts | 19° |
| 2026-05-06 03:30 | 30.92692 | 137.72729 | 39111 ft | 543 kts | 19° |
| 2026-05-06 03:31 | 30.99580 | 137.76417 | 39096 ft | 542 kts | 18° |
| 2026-05-06 03:31 | 31.06388 | 137.80057 | 39089 ft | 540 kts | 19° |
| 2026-05-06 03:32 | 31.13228 | 137.83710 | 39091 ft | 542 kts | 18° |
| 2026-05-06 03:32 | 31.20158 | 137.87431 | 39084 ft | 543 kts | 18° |
| 2026-05-06 03:33 | 31.27031 | 137.91122 | 39094 ft | 543 kts | 18° |
| 2026-05-06 03:33 | 31.33874 | 137.94803 | 39107 ft | 544 kts | 18° |
| 2026-05-06 03:34 | 31.40776 | 137.98518 | 39107 ft | 547 kts | 18° |
| 2026-05-06 03:34 | 31.47657 | 138.02235 | 39108 ft | 546 kts | 17° |
| 2026-05-06 03:35 | 31.54571 | 138.05972 | 39107 ft | 547 kts | 18° |
| 2026-05-06 03:35 | 31.61490 | 138.09718 | 39107 ft | 549 kts | 18° |
| 2026-05-06 03:36 | 31.68439 | 138.13490 | 39116 ft | 551 kts | 18° |
| 2026-05-06 03:36 | 31.75384 | 138.17274 | 39121 ft | 550 kts | 17° |
| 2026-05-06 03:37 | 31.82289 | 138.21034 | 39129 ft | 550 kts | 17° |
| 2026-05-06 03:37 | 31.89253 | 138.24829 | 39126 ft | 551 kts | 17° |
| 2026-05-06 03:38 | 31.96192 | 138.28621 | 39133 ft | 549 kts | 17° |
| 2026-05-06 03:38 | 32.03100 | 138.32393 | 39129 ft | 550 kts | 17° |
| 2026-05-06 03:39 | 32.10044 | 138.36198 | 39136 ft | 551 kts | 17° |
| 2026-05-06 03:39 | 32.16961 | 138.39999 | 39137 ft | 548 kts | 16° |
| 2026-05-06 03:40 | 32.23880 | 138.43799 | 39138 ft | 549 kts | 16° |
| 2026-05-06 03:40 | 32.30764 | 138.47594 | 39146 ft | 547 kts | 17° |
| 2026-05-06 03:41 | 32.37669 | 138.51405 | 39147 ft | 547 kts | 16° |
| 2026-05-06 03:41 | 32.44540 | 138.55197 | 39145 ft | 549 kts | 16° |
| 2026-05-06 03:42 | 32.51427 | 138.59007 | 39150 ft | 548 kts | 16° |
| 2026-05-06 03:42 | 32.58344 | 138.62852 | 39153 ft | 545 kts | 16° |
| 2026-05-06 03:43 | 32.65160 | 138.66641 | 39157 ft | 542 kts | 17° |
| 2026-05-06 03:43 | 32.71979 | 138.70436 | 39160 ft | 542 kts | 17° |
| 2026-05-06 03:44 | 32.78796 | 138.74246 | 39167 ft | 541 kts | 16° |
| 2026-05-06 03:44 | 32.85589 | 138.78040 | 39167 ft | 540 kts | 16° |
| 2026-05-06 03:45 | 32.92372 | 138.81841 | 39174 ft | 542 kts | 17° |
| 2026-05-06 03:45 | 32.99170 | 138.85660 | 39177 ft | 539 kts | 16° |
| 2026-05-06 03:46 | 33.05958 | 138.89473 | 39175 ft | 541 kts | 17° |
| 2026-05-06 03:46 | 33.12749 | 138.93297 | 39175 ft | 543 kts | 16° |
| 2026-05-06 03:47 | 33.19532 | 138.97328 | 39177 ft | 548 kts | 20° |
| 2026-05-06 03:47 | 33.26220 | 139.01764 | 39178 ft | 547 kts | 20° |
| 2026-05-06 03:48 | 33.32847 | 139.06201 | 39178 ft | 546 kts | 20° |
| 2026-05-06 03:48 | 33.39464 | 139.10623 | 39184 ft | 546 kts | 20° |
| 2026-05-06 03:49 | 33.44916 | 139.14258 | 39182 ft | 547 kts | 20° |
| 2026-05-06 03:49 | 33.47893 | 139.16243 | 39183 ft | 548 kts | 20° |
| 2026-05-06 03:50 | 33.54553 | 139.20703 | 39182 ft | 546 kts | 20° |
| 2026-05-06 03:50 | 33.61167 | 139.25125 | 39191 ft | 548 kts | 20° |
| 2026-05-06 03:51 | 33.67799 | 139.29578 | 39191 ft | 547 kts | 19° |
| 2026-05-06 03:51 | 33.74418 | 139.34029 | 39186 ft | 545 kts | 20° |
| 2026-05-06 03:52 | 33.81044 | 139.38484 | 39185 ft | 547 kts | 20° |
| 2026-05-06 03:52 | 33.87649 | 139.42946 | 39196 ft | 546 kts | 19° |
| 2026-05-06 03:53 | 33.94236 | 139.47397 | 39192 ft | 544 kts | 19° |
| 2026-05-06 03:53 | 34.00779 | 139.52020 | 39187 ft | 553 kts | 24° |
| 2026-05-06 03:54 | 34.06980 | 139.57636 | 39189 ft | 563 kts | 32° |
| 2026-05-06 03:54 | 34.12585 | 139.64284 | 39183 ft | 571 kts | 42° |
| 2026-05-06 03:55 | 34.17509 | 139.71597 | 39192 ft | 555 kts | 45° |
| 2026-05-06 03:55 | 34.22269 | 139.78915 | 39181 ft | 556 kts | 46° |
| 2026-05-06 03:56 | 34.27043 | 139.86191 | 39177 ft | 554 kts | 44° |
| 2026-05-06 03:56 | 34.31855 | 139.93471 | 38944 ft | 554 kts | 46° |
| 2026-05-06 03:57 | 34.34262 | 139.97118 | 38124 ft | 559 kts | 46° |
| 2026-05-06 03:57 | 34.36683 | 140.00786 | 37188 ft | 562 kts | 46° |
| 2026-05-06 03:57 | 34.39111 | 140.04477 | 36343 ft | 564 kts | 46° |
| 2026-05-06 03:57 | 34.41575 | 140.08217 | 35605 ft | 564 kts | 47° |
| 2026-05-06 03:58 | 34.43973 | 140.11882 | 34927 ft | 562 kts | 48° |
| 2026-05-06 03:58 | 34.46321 | 140.15694 | 34281 ft | 561 kts | 52° |
| 2026-05-06 03:58 | 34.48470 | 140.19632 | 33673 ft | 559 kts | 54° |
| 2026-05-06 03:58 | 34.50529 | 140.23608 | 33092 ft | 557 kts | 57° |
| 2026-05-06 03:59 | 34.52552 | 140.27559 | 32491 ft | 555 kts | 56° |
| 2026-05-06 03:59 | 34.54578 | 140.31547 | 31870 ft | 554 kts | 57° |
| 2026-05-06 03:59 | 34.56588 | 140.35480 | 31240 ft | 553 kts | 56° |
| 2026-05-06 03:59 | 34.58604 | 140.39414 | 30594 ft | 552 kts | 57° |
| 2026-05-06 04:00 | 34.60633 | 140.43364 | 29923 ft | 552 kts | 57° |
| 2026-05-06 04:00 | 34.62675 | 140.47334 | 29237 ft | 552 kts | 56° |
| 2026-05-06 04:00 | 34.64686 | 140.51256 | 28567 ft | 552 kts | 57° |
| 2026-05-06 04:00 | 34.66707 | 140.55205 | 27866 ft | 551 kts | 57° |
| 2026-05-06 04:01 | 34.68727 | 140.59152 | 27146 ft | 552 kts | 57° |
| 2026-05-06 04:01 | 34.70779 | 140.63072 | 26615 ft | 546 kts | 53° |
| 2026-05-06 04:01 | 34.73315 | 140.66348 | 26143 ft | 533 kts | 34° |
| 2026-05-06 04:01 | 34.76526 | 140.68517 | 25694 ft | 513 kts | 14° |
| 2026-05-06 04:02 | 34.79888 | 140.69389 | 25259 ft | 494 kts | 0° |
| 2026-05-06 04:02 | 34.83308 | 140.70090 | 24716 ft | 498 kts | 7° |
| 2026-05-06 04:02 | 34.86657 | 140.71284 | 24125 ft | 499 kts | 13° |
| 2026-05-06 04:02 | 34.89938 | 140.72568 | 23533 ft | 498 kts | 13° |
| 2026-05-06 04:03 | 34.93240 | 140.73840 | 22919 ft | 496 kts | 12° |
| 2026-05-06 04:03 | 34.96543 | 140.75050 | 22317 ft | 494 kts | 11° |
| 2026-05-06 04:03 | 34.99838 | 140.76209 | 21708 ft | 492 kts | 11° |
| 2026-05-06 04:03 | 35.03162 | 140.77347 | 21143 ft | 488 kts | 11° |
| 2026-05-06 04:04 | 35.06402 | 140.78441 | 20678 ft | 482 kts | 10° |
| 2026-05-06 04:04 | 35.09652 | 140.79533 | 20305 ft | 474 kts | 10° |
| 2026-05-06 04:04 | 35.12807 | 140.80591 | 19785 ft | 469 kts | 10° |
| 2026-05-06 04:04 | 35.15962 | 140.81642 | 19319 ft | 464 kts | 10° |
| 2026-05-06 04:05 | 35.19046 | 140.82672 | 18882 ft | 457 kts | 10° |
| 2026-05-06 04:05 | 35.22083 | 140.83687 | 18445 ft | 451 kts | 10° |
| 2026-05-06 04:05 | 35.25090 | 140.84695 | 17999 ft | 446 kts | 10° |
| 2026-05-06 04:05 | 35.28052 | 140.85687 | 17550 ft | 441 kts | 10° |
| 2026-05-06 04:06 | 35.31007 | 140.86675 | 17102 ft | 436 kts | 11° |
| 2026-05-06 04:06 | 35.33917 | 140.87646 | 16647 ft | 432 kts | 11° |
| 2026-05-06 04:06 | 35.36809 | 140.88615 | 16179 ft | 428 kts | 12° |
| 2026-05-06 04:06 | 35.39650 | 140.89569 | 15726 ft | 424 kts | 12° |
| 2026-05-06 04:07 | 35.42520 | 140.90533 | 15260 ft | 421 kts | 12° |
| 2026-05-06 04:07 | 35.45301 | 140.91464 | 14809 ft | 418 kts | 13° |
| 2026-05-06 04:07 | 35.48129 | 140.92415 | 14345 ft | 414 kts | 13° |
| 2026-05-06 04:07 | 35.50901 | 140.93347 | 13889 ft | 411 kts | 14° |
| 2026-05-06 04:08 | 35.53647 | 140.94272 | 13413 ft | 409 kts | 14° |
| 2026-05-06 04:08 | 35.56376 | 140.95195 | 12933 ft | 406 kts | 15° |
| 2026-05-06 04:08 | 35.59084 | 140.96114 | 12454 ft | 404 kts | 15° |
| 2026-05-06 04:08 | 35.61763 | 140.97008 | 11965 ft | 400 kts | 13° |
| 2026-05-06 04:09 | 35.64509 | 140.97238 | 11539 ft | 392 kts | 351° |
| 2026-05-06 04:09 | 35.67007 | 140.96194 | 10872 ft | 372 kts | 326° |
| 2026-05-06 04:09 | 35.68868 | 140.94109 | 10376 ft | 352 kts | 307° |
| 2026-05-06 04:09 | 35.70389 | 140.91843 | 10220 ft | 342 kts | 307° |
| 2026-05-06 04:10 | 35.71915 | 140.89635 | 10086 ft | 332 kts | 309° |
| 2026-05-06 04:10 | 35.73424 | 140.87534 | 10023 ft | 321 kts | 310° |
| 2026-05-06 04:10 | 35.74892 | 140.85545 | 9933 ft | 312 kts | 310° |
| 2026-05-06 04:10 | 35.76361 | 140.83592 | 9694 ft | 308 kts | 311° |
| 2026-05-06 04:11 | 35.77819 | 140.81673 | 9429 ft | 305 kts | 311° |
| 2026-05-06 04:11 | 35.79268 | 140.79779 | 9111 ft | 305 kts | 311° |
| 2026-05-06 04:11 | 35.80717 | 140.77892 | 8841 ft | 302 kts | 311° |
| 2026-05-06 04:11 | 35.82147 | 140.76030 | 8605 ft | 299 kts | 310° |
| 2026-05-06 04:12 | 35.83578 | 140.74164 | 8266 ft | 300 kts | 310° |
| 2026-05-06 04:12 | 35.85022 | 140.72282 | 8019 ft | 297 kts | 310° |
| 2026-05-06 04:12 | 35.86433 | 140.70445 | 7733 ft | 296 kts | 310° |
| 2026-05-06 04:12 | 35.87851 | 140.68596 | 7409 ft | 295 kts | 310° |
| 2026-05-06 04:13 | 35.89256 | 140.66762 | 7213 ft | 291 kts | 310° |
| 2026-05-06 04:13 | 35.90628 | 140.64969 | 6912 ft | 290 kts | 309° |
| 2026-05-06 04:13 | 35.92016 | 140.63153 | 6638 ft | 289 kts | 309° |
| 2026-05-06 04:13 | 35.93386 | 140.61363 | 6372 ft | 288 kts | 309° |
| 2026-05-06 04:14 | 35.94750 | 140.59581 | 6117 ft | 286 kts | 309° |
| 2026-05-06 04:14 | 35.96112 | 140.57797 | 5989 ft | 279 kts | 310° |
| 2026-05-06 04:14 | 35.97404 | 140.56100 | 5971 ft | 268 kts | 307° |
| 2026-05-06 04:14 | 35.98420 | 140.54224 | 5967 ft | 254 kts | 290° |
| 2026-05-06 04:15 | 35.98980 | 140.52208 | 5641 ft | 254 kts | 281° |
| 2026-05-06 04:15 | 35.99406 | 140.50056 | 5149 ft | 262 kts | 279° |
| 2026-05-06 04:15 | 35.99828 | 140.47855 | 4621 ft | 262 kts | 280° |
| 2026-05-06 04:15 | 36.00253 | 140.45695 | 4109 ft | 261 kts | 281° |
| 2026-05-06 04:16 | 36.00669 | 140.43541 | 3887 ft | 258 kts | 278° |
| 2026-05-06 04:16 | 36.00879 | 140.41342 | 3721 ft | 254 kts | 267° |
| 2026-05-06 04:16 | 36.00670 | 140.39210 | 3583 ft | 251 kts | 252° |
| 2026-05-06 04:16 | 36.00100 | 140.37205 | 3422 ft | 247 kts | 246° |
| 2026-05-06 04:17 | 35.99437 | 140.35271 | 3288 ft | 241 kts | 242° |
| 2026-05-06 04:17 | 35.98644 | 140.33450 | 3151 ft | 235 kts | 238° |
| 2026-05-06 04:17 | 35.97847 | 140.31761 | 2992 ft | 218 kts | 237° |
| 2026-05-06 04:17 | 35.97124 | 140.30237 | 2978 ft | 199 kts | 237° |
| 2026-05-06 04:18 | 35.96343 | 140.28836 | 2973 ft | 196 kts | 217° |
| 2026-05-06 04:18 | 35.95112 | 140.28218 | 3018 ft | 191 kts | 183° |
| 2026-05-06 04:18 | 35.93830 | 140.28445 | 3006 ft | 179 kts | 165° |
| 2026-05-06 04:18 | 35.92703 | 140.29030 | 2830 ft | 178 kts | 156° |
| 2026-05-06 04:19 | 35.91611 | 140.29774 | 2603 ft | 178 kts | 153° |
| 2026-05-06 04:19 | 35.90543 | 140.30559 | 2375 ft | 177 kts | 152° |
| 2026-05-06 04:19 | 35.89520 | 140.31313 | 2143 ft | 169 kts | 152° |
| 2026-05-06 04:19 | 35.88524 | 140.32036 | 1919 ft | 161 kts | 153° |
| 2026-05-06 04:20 | 35.87577 | 140.32718 | 1704 ft | 154 kts | 153° |
| 2026-05-06 04:20 | 35.86669 | 140.33371 | 1507 ft | 147 kts | 153° |
| 2026-05-06 04:20 | 35.85802 | 140.33995 | 1326 ft | 140 kts | 152° |
| 2026-05-06 04:20 | 35.84990 | 140.34584 | 1146 ft | 133 kts | 153° |
| 2026-05-06 04:21 | 35.84213 | 140.35146 | 983 ft | 129 kts | 154° |
| 2026-05-06 04:21 | 35.83423 | 140.35713 | 821 ft | 130 kts | 153° |
| 2026-05-06 04:21 | 35.82646 | 140.36264 | 653 ft | 129 kts | 153° |
| 2026-05-06 04:21 | 35.81879 | 140.36822 | 488 ft | 129 kts | 150° |
| 2026-05-06 04:22 | 35.81112 | 140.37395 | 304 ft | 128 kts | 150° |
| 2026-05-06 04:22 | 35.80356 | 140.37932 | 157 ft | 126 kts | 149° |
| 2026-05-06 04:22 | 35.79675 | 140.38414 | 144 ft | 90 kts | 146° |
| 2026-05-06 04:23 | 35.78914 | 140.38966 | 141 ft | 53 kts | 148° |
| 2026-05-06 04:23 | 35.78671 | 140.39073 | 144 ft | 31 kts | 169° |
| 2026-05-06 04:23 | 35.78489 | 140.39107 | 144 ft | 25 kts | 169° |
| 2026-05-06 04:23 | 35.78322 | 140.39151 | 144 ft | 23 kts | 163° |
| 2026-05-06 04:24 | 35.78187 | 140.39189 | 147 ft | 15 kts | 185° |
| 2026-05-06 04:24 | 35.78116 | 140.39143 | 148 ft | 8 kts | 212° |
| 2026-05-06 04:24 | 35.78038 | 140.39137 | 150 ft | 12 kts | 161° |
| 2026-05-06 04:24 | 35.77961 | 140.39166 | 150 ft | 9 kts | 183° |
| 2026-05-06 04:25 | 35.77920 | 140.39142 | 150 ft | 5 kts | 228° |
| 2026-05-06 04:25 | 35.77895 | 140.39096 | 151 ft | 7 kts | 239° |
| 2026-05-06 04:25 | 35.77868 | 140.39040 | 152 ft | 9 kts | 239° |
| 2026-05-06 04:25 | 35.77833 | 140.38968 | 154 ft | 10 kts | 239° |
| 2026-05-06 04:26 | 35.77796 | 140.38892 | 154 ft | 8 kts | 238° |
| 2026-05-06 04:26 | 35.77780 | 140.38884 | 155 ft | 2 kts | 158° |
| 2026-05-06 04:26 | 35.77760 | 140.38931 | 155 ft | 10 kts | 97° |
| 2026-05-06 04:26 | 35.77757 | 140.38972 | 155 ft | 4 kts | 103° |
| 2026-05-06 04:27 | 35.77747 | 140.39017 | 155 ft | 5 kts | 105° |
| 2026-05-06 04:27 | 35.77744 | 140.39031 | 155 ft | 0 kts | 105° |